sensor_id;sensor_type;location;lat;lon;timestamp;temperature;humidity
40249;DHT22;25969;49.970;11.062;2022-08-19T04:18:33;19.20;99.90
40249;DHT22;25969;49.970;11.062;2022-08-19T04:28:34;19.90;99.90
40249;DHT22;25969;49.970;11.062;2022-08-19T04:38:36;19.00;99.90
40249;DHT22;25969;49.970;11.062;2022-08-19T04:48:38;19.00;99.90
40249;DHT22;25969;49.970;11.062;2022-08-19T04:58:41;19.00;99.90
40249;DHT22;25969;49.970;11.062;2022-08-19T05:08:43;19.00;99.90
40249;DHT22;25969;49.970;11.062;2022-08-19T05:18:44;19.20;99.90
40249;DHT22;25969;49.970;11.062;2022-08-19T05:29:04;19.20;99.90
40249;DHT22;25969;49.970;11.062;2022-08-19T05:39:08;19.20;99.90
40249;DHT22;25969;49.970;11.062;2022-08-19T05:49:09;19.20;99.90
40249;DHT22;25969;49.970;11.062;2022-08-19T05:59:10;19.00;99.90
40249;DHT22;25969;49.970;11.062;2022-08-19T06:09:12;19.00;99.90
40249;DHT22;25969;49.970;11.062;2022-08-19T06:19:14;19.30;99.90
40249;DHT22;25969;49.970;11.062;2022-08-19T06:29:17;19.30;99.90
40249;DHT22;25969;49.970;11.062;2022-08-19T06:39:23;19.30;99.90
40249;DHT22;25969;49.970;11.062;2022-08-19T06:49:24;19.40;99.90
40249;DHT22;25969;49.970;11.062;2022-08-19T06:59:32;19.90;99.90
40249;DHT22;25969;49.970;11.062;2022-08-19T07:09:34;20.10;99.90
40249;DHT22;25969;49.970;11.062;2022-08-19T07:19:38;20.40;99.90
40249;DHT22;25969;49.970;11.062;2022-08-19T07:29:39;20.50;99.90
40249;DHT22;25969;49.970;11.062;2022-08-19T07:39:40;20.70;99.90
40249;DHT22;25969;49.970;11.062;2022-08-19T07:49:41;20.30;99.90
40249;DHT22;25969;49.970;11.062;2022-08-19T07:59:42;20.50;99.90
40249;DHT22;25969;49.970;11.062;2022-08-19T08:09:44;21.60;99.90
40249;DHT22;25969;49.970;11.062;2022-08-19T08:19:45;21.40;99.90
40249;DHT22;25969;49.970;11.062;2022-08-19T08:29:46;21.90;99.90
40249;DHT22;25969;49.970;11.062;2022-08-19T08:39:49;22.20;99.90
40249;DHT22;25969;49.970;11.062;2022-08-19T08:50:07;22.40;99.90
40249;DHT22;25969;49.970;11.062;2022-08-19T09:00:24;23.00;99.90
40249;DHT22;25969;49.970;11.062;2022-08-19T09:20:59;22.70;99.90
40249;DHT22;25969;49.970;11.062;2022-08-19T09:31:00;22.60;99.90
40249;DHT22;25969;49.970;11.062;2022-08-19T09:41:10;22.60;99.90
40249;DHT22;25969;49.970;11.062;2022-08-19T09:51:18;23.10;99.90
40249;DHT22;25969;49.970;11.062;2022-08-19T10:01:22;23.80;99.90
40249;DHT22;25969;49.970;11.062;2022-08-19T10:11:23;23.50;99.90
40249;DHT22;25969;49.970;11.062;2022-08-19T10:21:27;23.20;99.90
40249;DHT22;25969;49.970;11.062;2022-08-19T10:31:30;23.60;99.90
40249;DHT22;25969;49.970;11.062;2022-08-19T10:41:35;23.50;99.90
40249;DHT22;25969;49.970;11.062;2022-08-19T10:51:38;23.40;99.90
40249;DHT22;25969;49.970;11.062;2022-08-19T11:02:02;23.50;99.90
40249;DHT22;25969;49.970;11.062;2022-08-19T11:12:04;22.90;99.90
40249;DHT22;25969;49.970;11.062;2022-08-19T11:22:08;22.90;99.90
40249;DHT22;25969;49.970;11.062;2022-08-19T11:32:10;23.20;99.90
40249;DHT22;25969;49.970;11.062;2022-08-19T11:42:11;23.70;99.90
40249;DHT22;25969;49.970;11.062;2022-08-19T11:52:30;23.20;99.90
40249;DHT22;25969;49.970;11.062;2022-08-19T12:02:31;22.80;99.90
40249;DHT22;25969;49.970;11.062;2022-08-19T12:12:32;22.20;99.90
40249;DHT22;25969;49.970;11.062;2022-08-19T12:22:33;21.70;99.90
40249;DHT22;25969;49.970;11.062;2022-08-19T12:32:34;21.10;99.90
40249;DHT22;25969;49.970;11.062;2022-08-19T12:42:34;20.60;99.90
40249;DHT22;25969;49.970;11.062;2022-08-19T12:52:36;21.50;99.90
40249;DHT22;25969;49.970;11.062;2022-08-19T13:02:44;22.50;99.90
40249;DHT22;25969;49.970;11.062;2022-08-19T13:12:48;22.40;99.90
40249;DHT22;25969;49.970;11.062;2022-08-19T13:22:49;22.60;99.90
40249;DHT22;25969;49.970;11.062;2022-08-19T13:32:50;22.60;99.90
40249;DHT22;25969;49.970;11.062;2022-08-19T13:43:10;22.90;99.90
40249;DHT22;25969;49.970;11.062;2022-08-19T13:53:11;23.00;99.90
40249;DHT22;25969;49.970;11.062;2022-08-19T14:03:12;22.40;99.90
40249;DHT22;25969;49.970;11.062;2022-08-19T14:13:16;22.30;99.90
40249;DHT22;25969;49.970;11.062;2022-08-19T14:23:17;22.50;99.90
40249;DHT22;25969;49.970;11.062;2022-08-19T14:33:18;22.20;99.90
40249;DHT22;25969;49.970;11.062;2022-08-19T14:43:19;21.80;99.90
40249;DHT22;25969;49.970;11.062;2022-08-19T14:53:20;21.60;99.90
40249;DHT22;25969;49.970;11.062;2022-08-19T15:03:20;21.80;99.90
40249;DHT22;25969;49.970;11.062;2022-08-19T15:13:21;21.80;99.90
40249;DHT22;25969;49.970;11.062;2022-08-19T15:23:22;21.30;99.90
40249;DHT22;25969;49.970;11.062;2022-08-19T15:33:24;21.10;99.90
40249;DHT22;25969;49.970;11.062;2022-08-19T15:43:25;20.90;99.90
40249;DHT22;25969;49.970;11.062;2022-08-19T15:53:25;20.60;99.90
40249;DHT22;25969;49.970;11.062;2022-08-19T16:03:27;20.40;99.90
40249;DHT22;25969;49.970;11.062;2022-08-19T16:13:48;20.00;99.90
40249;DHT22;25969;49.970;11.062;2022-08-19T16:23:51;19.70;99.90
40249;DHT22;25969;49.970;11.062;2022-08-19T16:33:53;19.10;99.90
40249;DHT22;25969;49.970;11.062;2022-08-19T16:43:54;18.90;99.90
40249;DHT22;25969;49.970;11.062;2022-08-19T16:53:55;18.80;99.90
40249;DHT22;25969;49.970;11.062;2022-08-19T17:03:56;18.60;99.90
40249;DHT22;25969;49.970;11.062;2022-08-19T17:13:58;18.60;99.90
40249;DHT22;25969;49.970;11.062;2022-08-19T17:24:02;18.40;99.90
40249;DHT22;25969;49.970;11.062;2022-08-19T17:34:04;18.40;99.90
40249;DHT22;25969;49.970;11.062;2022-08-19T17:44:05;18.30;99.90
40249;DHT22;25969;49.970;11.062;2022-08-19T17:54:07;18.20;99.90
40249;DHT22;25969;49.970;11.062;2022-08-19T18:04:08;18.30;99.90
40249;DHT22;25969;49.970;11.062;2022-08-19T18:14:09;18.30;99.90
40249;DHT22;25969;49.970;11.062;2022-08-19T18:24:10;18.30;99.90
40249;DHT22;25969;49.970;11.062;2022-08-19T18:34:11;18.10;99.90
40249;DHT22;25969;49.970;11.062;2022-08-19T18:44:12;17.80;99.90
40249;DHT22;25969;49.970;11.062;2022-08-19T18:54:31;17.70;99.90
40249;DHT22;25969;49.970;11.062;2022-08-19T19:04:36;17.60;99.90
40249;DHT22;25969;49.970;11.062;2022-08-19T19:14:41;17.60;99.90
40249;DHT22;25969;49.970;11.062;2022-08-19T19:24:41;17.60;99.90
40249;DHT22;25969;49.970;11.062;2022-08-19T19:34:43;17.60;99.90
40249;DHT22;25969;49.970;11.062;2022-08-19T19:44:44;17.50;99.90
40249;DHT22;25969;49.970;11.062;2022-08-19T19:54:48;17.50;99.90
40249;DHT22;25969;49.970;11.062;2022-08-19T20:04:48;17.60;99.90
40249;DHT22;25969;49.970;11.062;2022-08-19T20:14:50;17.60;99.90
40249;DHT22;25969;49.970;11.062;2022-08-19T20:24:51;17.70;99.90
40249;DHT22;25969;49.970;11.062;2022-08-19T20:34:53;17.70;99.90
40249;DHT22;25969;49.970;11.062;2022-08-19T20:44:53;17.70;99.90
40249;DHT22;25969;49.970;11.062;2022-08-19T20:54:54;17.60;99.90
40249;DHT22;25969;49.970;11.062;2022-08-19T21:04:56;17.60;99.90
40249;DHT22;25969;49.970;11.062;2022-08-19T21:14:57;17.60;99.90
40249;DHT22;25969;49.970;11.062;2022-08-19T21:24:57;17.40;99.90
40249;DHT22;25969;49.970;11.062;2022-08-19T21:34:58;17.50;99.90
40249;DHT22;25969;49.970;11.062;2022-08-19T21:44:59;17.40;99.90
40249;DHT22;25969;49.970;11.062;2022-08-19T21:55:00;17.30;99.90
